createdAt,value
2023-02-19T00:01:22.172Z,97296.38
2023-02-19T00:03:48.581Z,97303.63
2023-02-19T00:06:14.953Z,97304.63
2023-02-19T00:08:41.301Z,97296.59
2023-02-19T00:11:07.785Z,97306.00
2023-02-19T00:13:34.257Z,97301.16
2023-02-19T00:16:00.682Z,97291.94
2023-02-19T00:18:27.125Z,97299.19
2023-02-19T00:20:53.493Z,97287.94
2023-02-19T00:23:19.826Z,97294.75
2023-02-19T00:25:46.213Z,97300.00
2023-02-19T00:28:12.609Z,97291.16
2023-02-19T00:30:38.958Z,97294.34
2023-02-19T00:33:05.345Z,97288.31
2023-02-19T00:35:31.694Z,97295.53
2023-02-19T00:37:58.088Z,97294.13
2023-02-19T00:40:24.438Z,97294.16
2023-02-19T00:42:50.820Z,97297.75
2023-02-19T00:45:17.220Z,97300.41
2023-02-19T00:47:43.571Z,97286.69
2023-02-19T00:50:09.950Z,97285.50
2023-02-19T00:52:36.306Z,97295.16
2023-02-19T00:55:02.684Z,97304.97
2023-02-19T00:57:29.042Z,97301.81
2023-02-19T00:59:55.423Z,97297.16
2023-02-19T01:02:21.788Z,97295.53
2023-02-19T01:04:48.152Z,97305.97
2023-02-19T01:07:14.554Z,97300.38
2023-02-19T01:09:40.946Z,97295.94
2023-02-19T01:12:07.351Z,97301.53
2023-02-19T01:14:33.746Z,97296.25
2023-02-19T01:17:00.106Z,97283.63
2023-02-19T01:19:26.455Z,97297.13
2023-02-19T01:21:52.832Z,97294.94
2023-02-19T01:24:19.175Z,97293.16
2023-02-19T01:26:45.511Z,97291.94
2023-02-19T01:29:11.860Z,97296.75
2023-02-19T01:31:38.318Z,97284.28
2023-02-19T01:34:04.782Z,97290.75
2023-02-19T01:36:31.156Z,97294.16
2023-02-19T01:38:57.507Z,97293.78
2023-02-19T01:41:23.900Z,97283.91
2023-02-19T01:43:50.277Z,97286.31
2023-02-19T01:46:16.692Z,97284.66
2023-02-19T01:48:43.101Z,97286.47
2023-02-19T01:51:09.840Z,97283.88
2023-02-19T01:53:36.341Z,97283.84
2023-02-19T01:56:02.727Z,97280.81
2023-02-19T01:58:29.128Z,97283.06
2023-02-19T02:00:55.581Z,97269.78
2023-02-19T02:03:21.964Z,97273.59
2023-02-19T02:05:48.307Z,97274.44
2023-02-19T02:08:16.381Z,97261.56
2023-02-19T02:10:42.862Z,97266.97
2023-02-19T02:13:09.261Z,97256.72
2023-02-19T02:15:35.617Z,97256.09
2023-02-19T02:18:02.032Z,97256.94
2023-02-19T02:20:28.399Z,97257.50
2023-02-19T02:22:54.791Z,97259.69
2023-02-19T02:25:21.143Z,97246.81
2023-02-19T02:27:47.516Z,97242.53
2023-02-19T02:30:13.927Z,97250.06
2023-02-19T02:32:40.303Z,97256.88
2023-02-19T02:35:06.646Z,97247.25
2023-02-19T02:37:33.025Z,97241.63
2023-02-19T02:39:59.407Z,97237.22
2023-02-19T02:42:25.763Z,97238.41
2023-02-19T02:44:52.143Z,97244.22
2023-02-19T02:47:18.503Z,97244.19
2023-02-19T02:49:44.843Z,97239.16
2023-02-19T02:52:11.219Z,97242.41
2023-02-19T02:54:37.581Z,97233.94
2023-02-19T02:57:03.959Z,97235.13
2023-02-19T02:59:30.369Z,97226.28
2023-02-19T03:01:56.739Z,97224.66
2023-02-19T03:04:23.142Z,97219.88
2023-02-19T03:06:49.493Z,97226.28
2023-02-19T03:09:15.843Z,97224.72
2023-02-19T03:11:42.192Z,97230.75
2023-02-19T03:14:08.549Z,97225.13
2023-02-19T03:16:34.986Z,97224.25
2023-02-19T03:19:01.389Z,97221.91
2023-02-19T03:21:27.779Z,97217.22
2023-02-19T03:23:54.150Z,97217.47
2023-02-19T03:26:20.552Z,97215.97
2023-02-19T03:28:46.949Z,97199.63
2023-02-19T03:31:13.581Z,97200.81
2023-02-19T03:33:40.059Z,97198.69
2023-02-19T03:36:06.444Z,97198.50
2023-02-19T03:38:32.902Z,97205.75
2023-02-19T03:40:59.291Z,97213.41
2023-02-19T03:43:25.649Z,97208.22
2023-02-19T03:45:52.025Z,97210.22
2023-02-19T03:48:18.452Z,97209.41
2023-02-19T03:50:44.849Z,97213.34
2023-02-19T03:53:11.251Z,97211.78
2023-02-19T03:55:37.632Z,97217.50
2023-02-19T03:58:04.014Z,97214.28
2023-02-19T04:00:30.415Z,97216.22
2023-02-19T04:02:56.756Z,97223.88
2023-02-19T04:05:23.142Z,97220.19
2023-02-19T04:07:49.558Z,97233.25
2023-02-19T04:10:15.943Z,97241.78
2023-02-19T04:12:42.341Z,97243.66
2023-02-19T04:15:08.703Z,97253.03
2023-02-19T04:17:35.085Z,97255.50
2023-02-19T04:20:01.480Z,97252.88
2023-02-19T04:22:27.908Z,97256.28
2023-02-19T04:24:54.259Z,97253.44
2023-02-19T04:27:20.671Z,97243.94
2023-02-19T04:29:47.068Z,97257.66
2023-02-19T04:32:13.457Z,97258.47
2023-02-19T04:34:39.809Z,97273.75
2023-02-19T04:37:06.185Z,97268.94
2023-02-19T04:39:32.533Z,97280.41
2023-02-19T04:41:58.932Z,97284.25
2023-02-19T04:44:25.288Z,97279.00
2023-02-19T04:46:51.665Z,97268.91
2023-02-19T04:49:18.085Z,97267.72
2023-02-19T04:51:44.500Z,97265.28
2023-02-19T04:54:10.858Z,97268.09
2023-02-19T04:56:37.237Z,97278.00
2023-02-19T04:59:03.620Z,97276.56
2023-02-19T05:01:30.031Z,97278.66
2023-02-19T05:03:56.438Z,97269.31
2023-02-19T05:06:22.787Z,97236.25
2023-02-19T05:08:49.173Z,97225.88
2023-02-19T05:11:15.535Z,97234.88
2023-02-19T05:13:41.943Z,97241.09
2023-02-19T05:16:08.401Z,97238.69
2023-02-19T05:18:34.826Z,97236.16
2023-02-19T05:21:01.196Z,97235.16
2023-02-19T05:23:27.575Z,97227.53
2023-02-19T05:25:53.926Z,97222.72
2023-02-19T05:28:20.263Z,97219.88
2023-02-19T05:30:46.701Z,97218.28
2023-02-19T05:33:13.216Z,97205.00
2023-02-19T05:35:39.560Z,97215.66
2023-02-19T05:38:05.907Z,97210.47
2023-02-19T05:40:32.271Z,97214.66
2023-02-19T05:42:58.607Z,97216.69
2023-02-19T05:45:24.985Z,97219.09
2023-02-19T05:47:51.324Z,97221.13
2023-02-19T05:50:17.703Z,97235.16
2023-02-19T05:52:44.049Z,97240.59
2023-02-19T05:55:10.442Z,97233.16
2023-02-19T05:57:36.936Z,97224.31
2023-02-19T06:00:03.305Z,97227.47
2023-02-19T06:02:29.703Z,97232.72
2023-02-19T06:04:56.105Z,97221.63
2023-02-19T06:07:22.449Z,97234.69
2023-02-19T06:09:48.796Z,97241.22
2023-02-19T06:12:15.154Z,97241.44
2023-02-19T06:14:41.512Z,97252.91
2023-02-19T06:17:07.863Z,97256.13
2023-02-19T06:19:34.204Z,97264.16
2023-02-19T06:22:00.543Z,97260.94
2023-02-19T06:24:26.940Z,97264.94
2023-02-19T06:26:53.286Z,97259.25
2023-02-19T06:29:19.663Z,97275.78
2023-02-19T06:31:46.115Z,97277.41
2023-02-19T06:34:12.587Z,97289.91
2023-02-19T06:36:38.964Z,97294.94
2023-02-19T06:39:05.358Z,97297.53
2023-02-19T06:41:31.779Z,97294.72
2023-02-19T06:43:58.146Z,97299.13
2023-02-19T06:46:24.574Z,97284.16
2023-02-19T06:48:50.986Z,97278.44
2023-02-19T06:51:17.339Z,97283.31
2023-02-19T06:53:43.712Z,97279.47
2023-02-19T06:56:10.051Z,97283.31
2023-02-19T06:58:36.389Z,97293.47
2023-02-19T07:01:02.765Z,97288.69
2023-02-19T07:03:29.144Z,97287.28
2023-02-19T07:05:55.524Z,97283.44
2023-02-19T07:08:21.905Z,97299.97
2023-02-19T07:10:48.255Z,97311.25
2023-02-19T07:13:14.600Z,97316.63
2023-02-19T07:15:40.990Z,97320.38
2023-02-19T07:18:07.366Z,97329.50
2023-02-19T07:20:33.713Z,97343.44
2023-02-19T07:23:00.105Z,97346.34
2023-02-19T07:25:26.506Z,97333.47
2023-02-19T07:27:52.856Z,97324.53
2023-02-19T07:30:19.206Z,97337.03
2023-02-19T07:32:45.593Z,97336.28
2023-02-19T07:35:12.008Z,97341.34
2023-02-19T07:37:38.410Z,97343.88
2023-02-19T07:40:04.794Z,97343.63
2023-02-19T07:42:31.192Z,97344.16
2023-02-19T07:45:00.240Z,97350.19
2023-02-19T07:47:26.920Z,97371.88
2023-02-19T07:49:53.276Z,97375.34
2023-02-19T07:52:19.622Z,97383.50
2023-02-19T07:54:45.984Z,97390.19
2023-02-19T07:57:12.394Z,97385.63
2023-02-19T07:59:38.776Z,97376.38
2023-02-19T08:02:05.135Z,97379.38
2023-02-19T08:04:31.517Z,97376.16
2023-02-19T08:06:57.906Z,97377.28
2023-02-19T08:09:24.319Z,97378.38
2023-02-19T08:11:50.655Z,97385.75
2023-02-19T08:14:17.031Z,97392.69
2023-02-19T08:16:43.617Z,97386.00
2023-02-19T08:19:10.000Z,97389.81
2023-02-19T08:21:36.378Z,97387.84
2023-02-19T08:24:02.760Z,97386.31
2023-02-19T08:26:29.113Z,97394.47
2023-02-19T08:28:55.460Z,97399.22
2023-02-19T08:31:21.923Z,97396.56
2023-02-19T08:33:48.336Z,97400.09
2023-02-19T08:36:14.719Z,97408.06
2023-02-19T08:38:41.071Z,97418.47
2023-02-19T08:41:07.508Z,97410.81
2023-02-19T08:43:33.886Z,97407.19
2023-02-19T08:46:00.286Z,97419.97
2023-02-19T08:48:26.647Z,97419.00
2023-02-19T08:50:53.017Z,97414.97
2023-02-19T08:53:19.359Z,97406.34
2023-02-19T08:55:45.770Z,97401.38
2023-02-19T08:58:12.154Z,97403.50
2023-02-19T09:00:38.498Z,97398.31
2023-02-19T09:03:04.830Z,97408.16
2023-02-19T09:05:31.219Z,97405.97
2023-02-19T09:07:57.569Z,97406.94
2023-02-19T09:10:23.954Z,97405.16
2023-02-19T09:12:50.368Z,97415.63
2023-02-19T09:15:16.743Z,97414.69
2023-02-19T09:17:43.138Z,97412.66
2023-02-19T09:20:09.509Z,97410.22
2023-02-19T09:22:35.885Z,97412.59
2023-02-19T09:25:02.269Z,97414.53
2023-02-19T09:27:28.618Z,97411.69
2023-02-19T09:29:54.966Z,97406.66
2023-02-19T09:32:21.513Z,97399.31
2023-02-19T09:34:47.901Z,97403.22
2023-02-19T09:37:14.239Z,97403.22
2023-02-19T09:39:40.617Z,97404.44
2023-02-19T09:42:06.968Z,97411.16
2023-02-19T09:44:33.358Z,97417.81
2023-02-19T09:46:59.698Z,97421.94
2023-02-19T09:49:26.158Z,97416.63
2023-02-19T09:51:52.548Z,97405.66
2023-02-19T09:54:18.894Z,97406.47
2023-02-19T09:56:45.265Z,97401.53
2023-02-19T09:59:11.867Z,97407.72
2023-02-19T10:01:38.292Z,97422.91
2023-02-19T10:04:04.659Z,97411.00
2023-02-19T10:06:31.048Z,97412.69
2023-02-19T10:08:57.444Z,97410.78
2023-02-19T10:11:23.852Z,97413.47
2023-02-19T10:13:50.207Z,97410.28
2023-02-19T10:16:16.603Z,97414.22
2023-02-19T10:18:43.057Z,97409.09
2023-02-19T10:21:09.785Z,97414.53
2023-02-19T10:23:36.251Z,97409.69
2023-02-19T10:26:02.595Z,97405.38
2023-02-19T10:28:28.983Z,97402.63
2023-02-19T10:30:55.372Z,97404.03
2023-02-19T10:33:21.760Z,97403.78
2023-02-19T10:35:48.144Z,97405.94
2023-02-19T10:38:14.537Z,97406.81
2023-02-19T10:40:40.890Z,97411.56
2023-02-19T10:43:07.259Z,97414.88
2023-02-19T10:45:33.673Z,97416.06
2023-02-19T10:48:00.027Z,97406.19
2023-02-19T10:50:26.404Z,97409.50
2023-02-19T10:52:52.785Z,97405.13
2023-02-19T10:55:19.134Z,97411.56
2023-02-19T10:57:45.488Z,97408.47
2023-02-19T11:00:11.870Z,97407.56
2023-02-19T11:02:38.217Z,97406.34
2023-02-19T11:05:04.582Z,97406.06
2023-02-19T11:07:31.219Z,97405.84
2023-02-19T11:09:57.626Z,97404.63
2023-02-19T11:12:23.986Z,97414.13
2023-02-19T11:14:50.328Z,97405.28
2023-02-19T11:17:16.701Z,97394.66
2023-02-19T11:19:43.111Z,97394.16
2023-02-19T11:22:09.466Z,97393.78
2023-02-19T11:24:35.803Z,97388.19
2023-02-19T11:27:02.204Z,97384.13
2023-02-19T11:29:28.628Z,97380.44
2023-02-19T11:31:55.161Z,97373.06
2023-02-19T11:34:21.557Z,97373.09
2023-02-19T11:36:47.887Z,97367.69
2023-02-19T11:39:14.274Z,97365.19
2023-02-19T11:41:40.652Z,97359.56
2023-02-19T11:44:07.011Z,97354.97
2023-02-19T11:46:33.411Z,97354.06
2023-02-19T11:48:59.791Z,97351.28
2023-02-19T11:51:26.178Z,97342.16
2023-02-19T11:53:52.518Z,97348.19
2023-02-19T11:56:18.893Z,97342.00
2023-02-19T11:58:45.285Z,97330.97
2023-02-19T12:01:11.993Z,97328.38
2023-02-19T12:03:38.488Z,97323.09
2023-02-19T12:06:04.831Z,97322.88
2023-02-19T12:08:31.181Z,97318.41
2023-02-19T12:10:57.570Z,97323.38
2023-02-19T12:13:23.919Z,97315.94
2023-02-19T12:15:50.283Z,97312.78
2023-02-19T12:18:16.662Z,97302.03
2023-02-19T12:20:43.041Z,97300.94
2023-02-19T12:23:09.437Z,97296.59
2023-02-19T12:25:35.834Z,97290.53
2023-02-19T12:28:02.205Z,97295.41
2023-02-19T12:30:28.699Z,97293.41
2023-02-19T12:32:55.143Z,97299.81
2023-02-19T12:35:21.500Z,97301.66
2023-02-19T12:37:47.880Z,97304.53
2023-02-19T12:40:14.269Z,97294.47
2023-02-19T12:42:40.663Z,97301.03
2023-02-19T12:45:07.004Z,97296.63
2023-02-19T12:47:33.343Z,97296.22
2023-02-19T12:49:59.674Z,97296.97
2023-02-19T12:52:26.066Z,97295.13
2023-02-19T12:54:54.796Z,97293.81
2023-02-19T12:57:22.031Z,97291.41
2023-02-19T12:59:48.476Z,97287.09
2023-02-19T13:02:14.908Z,97291.88
2023-02-19T13:04:41.329Z,97285.00
2023-02-19T13:07:07.715Z,97282.41
2023-02-19T13:09:34.104Z,97269.50
2023-02-19T13:12:00.471Z,97263.31
2023-02-19T13:14:26.868Z,97263.00
2023-02-19T13:16:53.261Z,97261.38
2023-02-19T13:19:19.671Z,97253.06
2023-02-19T13:21:46.073Z,97253.94
2023-02-19T13:24:12.413Z,97255.75
2023-02-19T13:26:38.766Z,97257.00
2023-02-19T13:29:05.160Z,97263.78
2023-02-19T13:31:31.682Z,97252.88
2023-02-19T13:33:58.123Z,97248.09
2023-02-19T13:36:24.467Z,97242.97
2023-02-19T13:38:50.810Z,97250.91
2023-02-19T13:41:17.151Z,97245.00
2023-02-19T13:43:43.489Z,97255.84
2023-02-19T13:46:09.912Z,97250.09
2023-02-19T13:48:36.314Z,97252.09
2023-02-19T13:51:02.742Z,97260.44
2023-02-19T13:53:29.090Z,97256.56
2023-02-19T13:55:55.470Z,97246.84
2023-02-19T13:58:21.849Z,97235.66
2023-02-19T14:00:49.405Z,97235.44
2023-02-19T14:03:15.851Z,97234.78
2023-02-19T14:05:42.192Z,97245.72
2023-02-19T14:08:08.530Z,97257.06
2023-02-19T14:10:34.871Z,97246.09
2023-02-19T14:13:01.277Z,97243.31
2023-02-19T14:15:27.689Z,97239.50
2023-02-19T14:17:54.130Z,97240.47
2023-02-19T14:20:20.512Z,97233.91
2023-02-19T14:22:46.913Z,97231.69
2023-02-19T14:25:13.266Z,97227.72
2023-02-19T14:27:39.595Z,97227.22
2023-02-19T14:30:06.081Z,97225.38
2023-02-19T14:32:32.563Z,97211.56
2023-02-19T14:34:58.946Z,97211.56
2023-02-19T14:37:25.292Z,97214.28
2023-02-19T14:39:51.635Z,97210.84
2023-02-19T14:42:17.972Z,97198.13
2023-02-19T14:44:44.357Z,97203.34
2023-02-19T14:47:10.707Z,97189.16
2023-02-19T14:49:37.094Z,97205.13
2023-02-19T14:52:03.440Z,97205.91
2023-02-19T14:54:29.813Z,97216.38
2023-02-19T14:56:56.190Z,97213.81
2023-02-19T14:59:22.529Z,97214.94
2023-02-19T15:01:48.964Z,97212.69
2023-02-19T15:04:15.387Z,97210.84
2023-02-19T15:06:41.793Z,97205.00
2023-02-19T15:09:08.150Z,97213.19
2023-02-19T15:11:34.482Z,97221.34
2023-02-19T15:14:00.810Z,97222.47
2023-02-19T15:16:27.184Z,97229.34
2023-02-19T15:18:53.530Z,97240.25
2023-02-19T15:21:19.910Z,97235.59
2023-02-19T15:23:46.291Z,97234.94
2023-02-19T15:26:12.684Z,97227.47
2023-02-19T15:28:39.037Z,97230.13
2023-02-19T15:31:05.441Z,97217.66
2023-02-19T15:33:31.811Z,97216.09
2023-02-19T15:35:58.182Z,97222.31
2023-02-19T15:38:24.574Z,97221.09
2023-02-19T15:40:50.919Z,97227.91
2023-02-19T15:43:17.308Z,97220.88
2023-02-19T15:45:43.646Z,97213.31
2023-02-19T15:48:10.045Z,97210.06
2023-02-19T15:50:36.392Z,97208.13
2023-02-19T15:53:02.720Z,97203.72
2023-02-19T15:55:29.113Z,97206.72
2023-02-19T15:57:55.520Z,97212.75
2023-02-19T16:00:21.975Z,97226.63
2023-02-19T16:02:48.401Z,97231.28
2023-02-19T16:05:14.817Z,97229.84
2023-02-19T16:07:41.197Z,97229.63
2023-02-19T16:10:07.584Z,97241.19
2023-02-19T16:12:33.940Z,97242.56
2023-02-19T16:15:00.318Z,97252.91
2023-02-19T16:17:26.719Z,97250.81
2023-02-19T16:19:53.072Z,97257.38
2023-02-19T16:22:19.414Z,97251.94
2023-02-19T16:24:45.805Z,97251.16
2023-02-19T16:27:12.157Z,97251.28
2023-02-19T16:29:38.553Z,97254.47
2023-02-19T16:32:04.995Z,97251.63
2023-02-19T16:34:31.436Z,97248.06
2023-02-19T16:36:57.826Z,97249.00
2023-02-19T16:39:24.168Z,97253.50
2023-02-19T16:41:50.556Z,97262.03
2023-02-19T16:44:16.942Z,97253.78
2023-02-19T16:46:43.285Z,97261.88
2023-02-19T16:49:09.661Z,97261.75
2023-02-19T16:51:36.250Z,97262.03
2023-02-19T16:54:02.653Z,97278.25
2023-02-19T16:56:29.007Z,97280.19
2023-02-19T16:58:55.394Z,97282.66
2023-02-19T17:01:21.812Z,97287.22
2023-02-19T17:03:48.260Z,97300.53
2023-02-19T17:06:14.663Z,97294.22
2023-02-19T17:08:41.008Z,97311.28
2023-02-19T17:11:07.384Z,97293.69
2023-02-19T17:13:33.746Z,97310.63
2023-02-19T17:16:00.108Z,97314.47
2023-02-19T17:18:26.464Z,97310.38
2023-02-19T17:20:52.810Z,97311.25
2023-02-19T17:23:19.138Z,97321.47
2023-02-19T17:25:45.476Z,97322.00
2023-02-19T17:28:11.845Z,97333.63
2023-02-19T17:30:40.057Z,97325.34
2023-02-19T17:33:06.815Z,97334.53
2023-02-19T17:35:33.194Z,97335.28
2023-02-19T17:37:59.533Z,97342.38
2023-02-19T17:40:32.827Z,97348.97
2023-02-19T17:42:59.736Z,97345.56
2023-02-19T17:45:26.130Z,97355.09
2023-02-19T17:47:52.526Z,97353.78
2023-02-19T17:50:18.909Z,97361.34
2023-02-19T17:52:45.262Z,97374.00
2023-02-19T17:55:11.658Z,97376.81
2023-02-19T17:57:38.045Z,97365.59
2023-02-19T18:00:04.433Z,97370.78
2023-02-19T18:02:30.788Z,97379.94
2023-02-19T18:04:57.161Z,97373.81
2023-02-19T18:07:23.570Z,97382.34
2023-02-19T18:09:49.913Z,97383.13
2023-02-19T18:12:16.291Z,97384.66
2023-02-19T18:14:42.631Z,97387.88
2023-02-19T18:17:08.971Z,97389.03
2023-02-19T18:19:35.321Z,97393.34
2023-02-19T18:22:01.655Z,97390.91
2023-02-19T18:24:28.050Z,97391.50
2023-02-19T18:26:54.478Z,97393.34
2023-02-19T18:29:20.888Z,97400.31
2023-02-19T18:31:47.345Z,97399.28
2023-02-19T18:34:13.797Z,97410.34
2023-02-19T18:36:40.138Z,97399.09
2023-02-19T18:39:06.511Z,97402.50
2023-02-19T18:41:32.855Z,97400.88
2023-02-19T18:43:59.239Z,97403.50
2023-02-19T18:46:25.709Z,97396.25
2023-02-19T18:48:52.111Z,97384.97
2023-02-19T18:51:18.475Z,97393.63
2023-02-19T18:53:44.862Z,97388.00
2023-02-19T18:56:11.262Z,97385.19
2023-02-19T18:58:37.659Z,97383.38
2023-02-19T19:01:04.122Z,97378.34
2023-02-19T19:03:30.516Z,97389.81
2023-02-19T19:05:56.842Z,97397.09
2023-02-19T19:08:23.186Z,97396.63
2023-02-19T19:10:49.556Z,97394.78
2023-02-19T19:13:15.965Z,97393.88
2023-02-19T19:15:42.361Z,97390.44
2023-02-19T19:18:08.745Z,97388.69
2023-02-19T19:20:35.130Z,97394.84
2023-02-19T19:23:01.530Z,97398.75
2023-02-19T19:25:27.974Z,97403.84
2023-02-19T19:27:54.356Z,97407.00
2023-02-19T19:30:20.822Z,97400.09
2023-02-19T19:32:47.896Z,97403.06
2023-02-19T19:35:14.262Z,97411.56
2023-02-19T19:37:40.633Z,97424.13
2023-02-19T19:40:07.019Z,97427.03
2023-02-19T19:42:33.420Z,97426.63
2023-02-19T19:44:59.840Z,97425.88
2023-02-19T19:47:26.209Z,97419.81
2023-02-19T19:49:52.576Z,97419.53
2023-02-19T19:52:19.004Z,97418.88
2023-02-19T19:54:45.466Z,97411.53
2023-02-19T19:57:11.860Z,97413.66
2023-02-19T19:59:38.217Z,97407.13
2023-02-19T20:02:04.597Z,97405.97
2023-02-19T20:04:30.983Z,97391.06
2023-02-19T20:06:57.369Z,97394.28
2023-02-19T20:09:23.789Z,97388.16
2023-02-19T20:11:50.225Z,97390.78
2023-02-19T20:14:16.589Z,97388.34
2023-02-19T20:16:44.706Z,97400.72
2023-02-19T20:19:11.392Z,97401.75
2023-02-19T20:21:37.759Z,97400.00
2023-02-19T20:24:04.146Z,97416.34
2023-02-19T20:26:30.507Z,97421.69
2023-02-19T20:28:56.889Z,97424.75
2023-02-19T20:31:23.479Z,97439.31
2023-02-19T20:33:49.863Z,97438.03
2023-02-19T20:36:16.251Z,97434.28
2023-02-19T20:38:42.643Z,97428.22
2023-02-19T20:41:09.066Z,97434.34
2023-02-19T20:43:35.500Z,97439.06
2023-02-19T20:46:01.894Z,97440.88
2023-02-19T20:48:28.247Z,97452.06
2023-02-19T20:50:54.626Z,97454.59
2023-02-19T20:53:21.024Z,97466.78
2023-02-19T20:55:47.388Z,97474.06
2023-02-19T20:58:13.775Z,97476.88
2023-02-19T21:00:40.173Z,97476.47
2023-02-19T21:03:06.620Z,97475.88
2023-02-19T21:05:33.008Z,97469.59
2023-02-19T21:07:59.393Z,97483.31
2023-02-19T21:10:25.752Z,97479.91
2023-02-19T21:12:52.088Z,97475.66
2023-02-19T21:15:18.422Z,97480.09
2023-02-19T21:17:44.757Z,97479.69
2023-02-19T21:20:11.136Z,97469.22
2023-02-19T21:22:37.528Z,97457.91
2023-02-19T21:25:03.879Z,97449.50
2023-02-19T21:27:30.235Z,97445.78
2023-02-19T21:29:56.606Z,97456.97
2023-02-19T21:32:23.060Z,97468.28
2023-02-19T21:34:49.430Z,97468.59
2023-02-19T21:37:15.797Z,97466.59
2023-02-19T21:39:42.187Z,97474.66
2023-02-19T21:42:08.521Z,97477.25
2023-02-19T21:44:34.927Z,97474.06
2023-02-19T21:47:01.288Z,97477.16
2023-02-19T21:49:27.632Z,97478.22
2023-02-19T21:51:53.979Z,97481.47
2023-02-19T21:54:20.411Z,97481.69
2023-02-19T21:56:46.825Z,97486.31
2023-02-19T21:59:13.170Z,97486.34
2023-02-19T22:01:39.573Z,97492.97
2023-02-19T22:04:05.991Z,97501.47
2023-02-19T22:06:32.356Z,97488.88
2023-02-19T22:08:58.744Z,97492.56
2023-02-19T22:11:25.136Z,97498.09
2023-02-19T22:13:51.549Z,97491.69
2023-02-19T22:16:17.970Z,97498.81
2023-02-19T22:18:44.395Z,97501.44
2023-02-19T22:21:10.724Z,97496.19
2023-02-19T22:23:37.059Z,97500.50
2023-02-19T22:26:03.454Z,97499.28
2023-02-19T22:28:29.819Z,97497.34
2023-02-19T22:30:56.483Z,97499.75
2023-02-19T22:33:22.868Z,97496.00
2023-02-19T22:35:49.204Z,97485.44
2023-02-19T22:38:15.564Z,97489.59
2023-02-19T22:40:41.935Z,97488.97
2023-02-19T22:43:08.328Z,97496.44
2023-02-19T22:45:34.687Z,97503.38
2023-02-19T22:48:01.070Z,97502.28
2023-02-19T22:50:27.410Z,97506.31
2023-02-19T22:52:53.783Z,97500.47
2023-02-19T22:55:20.170Z,97507.91
2023-02-19T22:57:46.522Z,97497.84
2023-02-19T23:00:12.854Z,97502.66
2023-02-19T23:02:39.193Z,97507.53
2023-02-19T23:05:05.582Z,97508.91
2023-02-19T23:07:31.970Z,97504.22
2023-02-19T23:09:58.363Z,97505.84
2023-02-19T23:12:24.706Z,97497.84
2023-02-19T23:14:51.039Z,97497.84
2023-02-19T23:17:17.380Z,97508.72
2023-02-19T23:19:43.741Z,97503.88
2023-02-19T23:22:10.366Z,97512.13
2023-02-19T23:24:36.703Z,97510.75
2023-02-19T23:27:03.080Z,97505.09
2023-02-19T23:29:29.426Z,97518.59
2023-02-19T23:31:55.862Z,97515.97
2023-02-19T23:34:22.291Z,97516.69
2023-02-19T23:36:48.630Z,97522.03
2023-02-19T23:39:14.964Z,97523.97
2023-02-19T23:41:41.294Z,97518.19
2023-02-19T23:44:07.661Z,97521.34
2023-02-19T23:46:34.006Z,97532.34
2023-02-19T23:49:00.348Z,97520.91
2023-02-19T23:51:26.734Z,97521.63
2023-02-19T23:53:53.135Z,97519.59
2023-02-19T23:56:19.537Z,97525.66
2023-02-19T23:58:45.907Z,97526.06
